sensor_id;sensor_type;location;lat;lon;timestamp;temperature;humidity
13744;DHT22;6943;52.368;9.966;2023-08-12T00:01:38;19.40;57.60
13744;DHT22;6943;52.368;9.966;2023-08-12T00:04:04;19.40;99.90
13744;DHT22;6943;52.368;9.966;2023-08-12T00:06:30;19.40;99.90
13744;DHT22;6943;52.368;9.966;2023-08-12T00:08:55;19.30;99.90
13744;DHT22;6943;52.368;9.966;2023-08-12T00:11:21;19.30;1.00
13744;DHT22;6943;52.368;9.966;2023-08-12T00:13:46;19.30;99.90
13744;DHT22;6943;52.368;9.966;2023-08-12T00:16:12;19.20;1.00
13744;DHT22;6943;52.368;9.966;2023-08-12T00:18:37;19.10;1.00
13744;DHT22;6943;52.368;9.966;2023-08-12T00:21:07;19.00;1.00
13744;DHT22;6943;52.368;9.966;2023-08-12T00:23:38;19.00;1.00
13744;DHT22;6943;52.368;9.966;2023-08-12T00:26:03;19.00;1.00
13744;DHT22;6943;52.368;9.966;2023-08-12T00:28:29;19.00;1.00
13744;DHT22;6943;52.368;9.966;2023-08-12T00:30:54;19.00;1.00
13744;DHT22;6943;52.368;9.966;2023-08-12T00:33:20;19.00;1.00
13744;DHT22;6943;52.368;9.966;2023-08-12T00:35:45;19.00;1.00
13744;DHT22;6943;52.368;9.966;2023-08-12T00:38:11;19.00;1.00
13744;DHT22;6943;52.368;9.966;2023-08-12T00:40:36;19.00;1.00
13744;DHT22;6943;52.368;9.966;2023-08-12T00:43:02;19.10;99.90
13744;DHT22;6943;52.368;9.966;2023-08-12T00:45:28;19.00;99.90
13744;DHT22;6943;52.368;9.966;2023-08-12T00:47:54;19.00;99.90
13744;DHT22;6943;52.368;9.966;2023-08-12T00:50:20;19.00;99.90
13744;DHT22;6943;52.368;9.966;2023-08-12T00:52:45;19.00;1.00
13744;DHT22;6943;52.368;9.966;2023-08-12T00:55:11;18.90;1.00
13744;DHT22;6943;52.368;9.966;2023-08-12T00:57:37;18.90;1.00
13744;DHT22;6943;52.368;9.966;2023-08-12T01:00:03;18.90;1.00
13744;DHT22;6943;52.368;9.966;2023-08-12T01:02:29;18.90;1.00
13744;DHT22;6943;52.368;9.966;2023-08-12T01:04:55;18.80;1.00
13744;DHT22;6943;52.368;9.966;2023-08-12T01:07:21;18.90;1.00
13744;DHT22;6943;52.368;9.966;2023-08-12T01:09:47;18.90;1.00
13744;DHT22;6943;52.368;9.966;2023-08-12T01:12:25;18.90;99.90
13744;DHT22;6943;52.368;9.966;2023-08-12T01:15:03;19.00;99.90
13744;DHT22;6943;52.368;9.966;2023-08-12T01:17:31;19.00;99.90
13744;DHT22;6943;52.368;9.966;2023-08-12T01:19:59;19.00;41.20
13744;DHT22;6943;52.368;9.966;2023-08-12T01:22:25;18.90;99.90
13744;DHT22;6943;52.368;9.966;2023-08-12T01:24:52;18.80;1.00
13744;DHT22;6943;52.368;9.966;2023-08-12T01:27:22;18.80;1.00
13744;DHT22;6943;52.368;9.966;2023-08-12T01:29:50;18.80;1.00
13744;DHT22;6943;52.368;9.966;2023-08-12T01:37:29;18.80;1.00
13744;DHT22;6943;52.368;9.966;2023-08-12T01:39:56;18.80;1.00
13744;DHT22;6943;52.368;9.966;2023-08-12T01:42:22;18.80;1.00
13744;DHT22;6943;52.368;9.966;2023-08-12T01:44:48;18.90;99.90
13744;DHT22;6943;52.368;9.966;2023-08-12T01:47:14;18.90;99.90
13744;DHT22;6943;52.368;9.966;2023-08-12T01:49:40;18.90;99.90
13744;DHT22;6943;52.368;9.966;2023-08-12T01:52:05;18.90;99.90
13744;DHT22;6943;52.368;9.966;2023-08-12T01:54:31;18.90;99.90
13744;DHT22;6943;52.368;9.966;2023-08-12T01:57:01;18.90;99.90
13744;DHT22;6943;52.368;9.966;2023-08-12T01:59:27;18.90;99.90
13744;DHT22;6943;52.368;9.966;2023-08-12T02:01:52;18.90;1.00
13744;DHT22;6943;52.368;9.966;2023-08-12T02:04:18;18.90;28.30
13744;DHT22;6943;52.368;9.966;2023-08-12T02:06:43;18.90;16.30
13744;DHT22;6943;52.368;9.966;2023-08-12T02:09:09;18.90;1.00
13744;DHT22;6943;52.368;9.966;2023-08-12T02:11:34;19.00;1.00
13744;DHT22;6943;52.368;9.966;2023-08-12T02:14:00;19.00;1.00
13744;DHT22;6943;52.368;9.966;2023-08-12T02:16:25;19.00;1.00
13744;DHT22;6943;52.368;9.966;2023-08-12T02:18:51;19.00;1.00
13744;DHT22;6943;52.368;9.966;2023-08-12T02:21:17;19.00;1.00
13744;DHT22;6943;52.368;9.966;2023-08-12T02:23:42;18.90;1.00
13744;DHT22;6943;52.368;9.966;2023-08-12T02:26:10;18.90;99.90
13744;DHT22;6943;52.368;9.966;2023-08-12T02:28:36;18.90;99.90
13744;DHT22;6943;52.368;9.966;2023-08-12T02:31:01;18.90;52.40
13744;DHT22;6943;52.368;9.966;2023-08-12T02:33:27;19.00;1.00
13744;DHT22;6943;52.368;9.966;2023-08-12T02:35:53;19.00;1.00
13744;DHT22;6943;52.368;9.966;2023-08-12T02:38:20;19.00;1.00
13744;DHT22;6943;52.368;9.966;2023-08-12T02:40:48;19.00;1.00
13744;DHT22;6943;52.368;9.966;2023-08-12T02:43:14;19.00;1.00
13744;DHT22;6943;52.368;9.966;2023-08-12T02:45:39;19.00;1.00
13744;DHT22;6943;52.368;9.966;2023-08-12T02:48:05;19.00;64.40
13744;DHT22;6943;52.368;9.966;2023-08-12T02:50:31;19.00;15.80
13744;DHT22;6943;52.368;9.966;2023-08-12T02:52:56;19.00;1.00
13744;DHT22;6943;52.368;9.966;2023-08-12T02:55:22;19.10;37.30
13744;DHT22;6943;52.368;9.966;2023-08-12T02:57:48;19.10;1.00
13744;DHT22;6943;52.368;9.966;2023-08-12T03:00:14;19.20;1.00
13744;DHT22;6943;52.368;9.966;2023-08-12T03:02:42;19.20;1.00
13744;DHT22;6943;52.368;9.966;2023-08-12T03:05:08;19.30;1.00
13744;DHT22;6943;52.368;9.966;2023-08-12T03:07:34;19.30;1.00
13744;DHT22;6943;52.368;9.966;2023-08-12T03:09:59;19.30;1.00
13744;DHT22;6943;52.368;9.966;2023-08-12T03:12:25;19.30;1.00
13744;DHT22;6943;52.368;9.966;2023-08-12T03:14:51;19.30;1.00
13744;DHT22;6943;52.368;9.966;2023-08-12T03:17:16;19.30;1.00
13744;DHT22;6943;52.368;9.966;2023-08-12T03:19:42;19.40;1.00
13744;DHT22;6943;52.368;9.966;2023-08-12T03:22:07;19.40;1.00
13744;DHT22;6943;52.368;9.966;2023-08-12T03:24:33;19.40;1.00
13744;DHT22;6943;52.368;9.966;2023-08-12T03:26:59;19.40;1.00
13744;DHT22;6943;52.368;9.966;2023-08-12T03:29:24;19.40;1.00
13744;DHT22;6943;52.368;9.966;2023-08-12T03:31:50;19.40;1.00
13744;DHT22;6943;52.368;9.966;2023-08-12T03:34:15;19.40;99.90
13744;DHT22;6943;52.368;9.966;2023-08-12T03:36:41;19.50;1.00
13744;DHT22;6943;52.368;9.966;2023-08-12T03:39:06;19.50;99.90
13744;DHT22;6943;52.368;9.966;2023-08-12T03:41:32;19.50;99.90
13744;DHT22;6943;52.368;9.966;2023-08-12T03:43:57;19.50;99.90
13744;DHT22;6943;52.368;9.966;2023-08-12T03:46:23;19.50;99.90
13744;DHT22;6943;52.368;9.966;2023-08-12T03:48:48;19.50;55.30
13744;DHT22;6943;52.368;9.966;2023-08-12T03:51:14;19.60;1.00
13744;DHT22;6943;52.368;9.966;2023-08-12T03:53:39;19.60;1.00
13744;DHT22;6943;52.368;9.966;2023-08-12T03:56:05;19.60;1.00
13744;DHT22;6943;52.368;9.966;2023-08-12T03:58:30;19.60;1.00
13744;DHT22;6943;52.368;9.966;2023-08-12T04:00:56;19.70;1.00
13744;DHT22;6943;52.368;9.966;2023-08-12T04:03:21;19.70;1.00
13744;DHT22;6943;52.368;9.966;2023-08-12T04:05:50;19.70;99.90
13744;DHT22;6943;52.368;9.966;2023-08-12T04:08:19;19.70;99.90
13744;DHT22;6943;52.368;9.966;2023-08-12T04:10:46;19.70;99.90
13744;DHT22;6943;52.368;9.966;2023-08-12T04:13:13;19.70;99.90
13744;DHT22;6943;52.368;9.966;2023-08-12T04:15:38;19.80;1.00
13744;DHT22;6943;52.368;9.966;2023-08-12T04:18:04;19.80;1.00
13744;DHT22;6943;52.368;9.966;2023-08-12T04:20:30;19.80;1.00
13744;DHT22;6943;52.368;9.966;2023-08-12T04:22:55;19.80;1.00
13744;DHT22;6943;52.368;9.966;2023-08-12T04:25:22;19.90;1.00
13744;DHT22;6943;52.368;9.966;2023-08-12T04:27:47;19.90;1.00
13744;DHT22;6943;52.368;9.966;2023-08-12T04:30:15;19.90;1.00
13744;DHT22;6943;52.368;9.966;2023-08-12T04:32:41;19.90;1.00
13744;DHT22;6943;52.368;9.966;2023-08-12T04:35:07;20.00;99.90
13744;DHT22;6943;52.368;9.966;2023-08-12T04:37:33;20.00;99.90
13744;DHT22;6943;52.368;9.966;2023-08-12T04:39:58;20.00;99.90
13744;DHT22;6943;52.368;9.966;2023-08-12T04:42:24;20.00;1.00
13744;DHT22;6943;52.368;9.966;2023-08-12T04:44:50;20.00;1.00
13744;DHT22;6943;52.368;9.966;2023-08-12T04:47:15;20.00;99.90
13744;DHT22;6943;52.368;9.966;2023-08-12T04:49:41;20.00;1.00
13744;DHT22;6943;52.368;9.966;2023-08-12T04:52:06;19.90;1.00
13744;DHT22;6943;52.368;9.966;2023-08-12T04:54:32;19.90;1.00
13744;DHT22;6943;52.368;9.966;2023-08-12T04:56:58;19.90;1.00
13744;DHT22;6943;52.368;9.966;2023-08-12T04:59:25;19.90;99.90
13744;DHT22;6943;52.368;9.966;2023-08-12T05:01:50;19.90;1.00
13744;DHT22;6943;52.368;9.966;2023-08-12T05:04:16;19.90;6.00
13744;DHT22;6943;52.368;9.966;2023-08-12T05:06:41;19.90;14.60
13744;DHT22;6943;52.368;9.966;2023-08-12T05:09:07;19.80;99.90
13744;DHT22;6943;52.368;9.966;2023-08-12T05:11:32;19.90;1.00
13744;DHT22;6943;52.368;9.966;2023-08-12T05:13:58;19.90;1.00
13744;DHT22;6943;52.368;9.966;2023-08-12T05:16:23;19.90;1.00
13744;DHT22;6943;52.368;9.966;2023-08-12T05:18:49;19.90;1.00
13744;DHT22;6943;52.368;9.966;2023-08-12T05:21:14;19.90;1.00
13744;DHT22;6943;52.368;9.966;2023-08-12T05:23:40;19.90;1.00
13744;DHT22;6943;52.368;9.966;2023-08-12T05:26:05;19.90;1.00
13744;DHT22;6943;52.368;9.966;2023-08-12T05:28:31;19.90;1.00
13744;DHT22;6943;52.368;9.966;2023-08-12T05:30:56;19.90;1.00
13744;DHT22;6943;52.368;9.966;2023-08-12T05:33:22;20.00;1.00
13744;DHT22;6943;52.368;9.966;2023-08-12T05:35:48;20.00;1.00
13744;DHT22;6943;52.368;9.966;2023-08-12T05:38:13;20.10;1.00
13744;DHT22;6943;52.368;9.966;2023-08-12T05:40:39;20.30;1.00
13744;DHT22;6943;52.368;9.966;2023-08-12T05:43:04;20.50;1.00
13744;DHT22;6943;52.368;9.966;2023-08-12T05:45:30;20.70;99.90
13744;DHT22;6943;52.368;9.966;2023-08-12T05:47:55;21.00;1.00
13744;DHT22;6943;52.368;9.966;2023-08-12T05:50:21;21.20;99.90
13744;DHT22;6943;52.368;9.966;2023-08-12T05:52:47;21.30;1.00
13744;DHT22;6943;52.368;9.966;2023-08-12T05:55:12;21.60;1.00
13744;DHT22;6943;52.368;9.966;2023-08-12T05:57:38;21.70;1.00
13744;DHT22;6943;52.368;9.966;2023-08-12T06:00:04;21.80;1.00
13744;DHT22;6943;52.368;9.966;2023-08-12T06:02:30;21.80;1.00
13744;DHT22;6943;52.368;9.966;2023-08-12T06:04:55;21.70;1.00
13744;DHT22;6943;52.368;9.966;2023-08-12T06:07:21;21.50;99.90
13744;DHT22;6943;52.368;9.966;2023-08-12T06:09:48;21.50;1.00
13744;DHT22;6943;52.368;9.966;2023-08-12T06:12:14;21.40;1.00
13744;DHT22;6943;52.368;9.966;2023-08-12T06:14:48;21.30;1.00
13744;DHT22;6943;52.368;9.966;2023-08-12T06:17:14;21.30;54.80
13744;DHT22;6943;52.368;9.966;2023-08-12T06:19:40;21.30;99.20
13744;DHT22;6943;52.368;9.966;2023-08-12T06:22:05;21.30;99.90
13744;DHT22;6943;52.368;9.966;2023-08-12T06:24:31;21.20;1.00
13744;DHT22;6943;52.368;9.966;2023-08-12T06:26:57;21.10;80.10
13744;DHT22;6943;52.368;9.966;2023-08-12T06:29:22;21.20;73.10
13744;DHT22;6943;52.368;9.966;2023-08-12T06:31:48;21.20;1.00
13744;DHT22;6943;52.368;9.966;2023-08-12T06:34:13;21.30;1.00
13744;DHT22;6943;52.368;9.966;2023-08-12T06:36:39;21.40;1.00
13744;DHT22;6943;52.368;9.966;2023-08-12T06:39:04;21.60;1.00
13744;DHT22;6943;52.368;9.966;2023-08-12T06:41:30;21.80;1.00
13744;DHT22;6943;52.368;9.966;2023-08-12T06:43:55;21.90;34.00
13744;DHT22;6943;52.368;9.966;2023-08-12T06:46:21;22.00;1.00
13744;DHT22;6943;52.368;9.966;2023-08-12T06:48:47;22.00;1.00
13744;DHT22;6943;52.368;9.966;2023-08-12T06:51:12;22.00;1.00
13744;DHT22;6943;52.368;9.966;2023-08-12T06:53:38;22.20;1.00
13744;DHT22;6943;52.368;9.966;2023-08-12T06:56:04;22.20;99.90
13744;DHT22;6943;52.368;9.966;2023-08-12T06:58:30;22.40;1.00
13744;DHT22;6943;52.368;9.966;2023-08-12T07:00:55;22.50;99.90
13744;DHT22;6943;52.368;9.966;2023-08-12T07:03:22;22.60;99.90
13744;DHT22;6943;52.368;9.966;2023-08-12T07:05:48;22.70;1.00
13744;DHT22;6943;52.368;9.966;2023-08-12T07:08:14;23.00;99.90
13744;DHT22;6943;52.368;9.966;2023-08-12T07:10:40;23.40;58.30
13744;DHT22;6943;52.368;9.966;2023-08-12T07:13:05;23.90;99.90
13744;DHT22;6943;52.368;9.966;2023-08-12T07:15:31;24.30;99.90
13744;DHT22;6943;52.368;9.966;2023-08-12T07:17:56;24.80;1.00
13744;DHT22;6943;52.368;9.966;2023-08-12T07:20:24;25.70;1.00
13744;DHT22;6943;52.368;9.966;2023-08-12T07:22:49;26.70;1.00
13744;DHT22;6943;52.368;9.966;2023-08-12T07:25:15;30.50;1.00
13744;DHT22;6943;52.368;9.966;2023-08-12T07:27:41;33.10;99.90
13744;DHT22;6943;52.368;9.966;2023-08-12T07:30:07;35.00;99.90
13744;DHT22;6943;52.368;9.966;2023-08-12T07:32:33;36.00;99.90
13744;DHT22;6943;52.368;9.966;2023-08-12T07:34:59;34.90;99.90
13744;DHT22;6943;52.368;9.966;2023-08-12T07:37:25;34.30;99.90
13744;DHT22;6943;52.368;9.966;2023-08-12T07:39:50;32.40;99.90
13744;DHT22;6943;52.368;9.966;2023-08-12T07:42:16;30.50;99.90
13744;DHT22;6943;52.368;9.966;2023-08-12T07:44:41;29.70;99.90
13744;DHT22;6943;52.368;9.966;2023-08-12T07:47:07;28.80;99.90
13744;DHT22;6943;52.368;9.966;2023-08-12T07:49:33;27.70;1.00
13744;DHT22;6943;52.368;9.966;2023-08-12T07:51:58;26.50;99.90
13744;DHT22;6943;52.368;9.966;2023-08-12T07:54:23;25.80;1.00
13744;DHT22;6943;52.368;9.966;2023-08-12T07:56:49;25.30;1.00
13744;DHT22;6943;52.368;9.966;2023-08-12T07:59:14;24.60;99.90
13744;DHT22;6943;52.368;9.966;2023-08-12T08:01:41;24.40;1.00
13744;DHT22;6943;52.368;9.966;2023-08-12T08:04:06;24.40;1.00
13744;DHT22;6943;52.368;9.966;2023-08-12T08:06:32;24.00;1.00
13744;DHT22;6943;52.368;9.966;2023-08-12T08:08:58;23.50;99.90
13744;DHT22;6943;52.368;9.966;2023-08-12T08:11:24;23.20;1.00
13744;DHT22;6943;52.368;9.966;2023-08-12T08:13:49;23.00;1.00
13744;DHT22;6943;52.368;9.966;2023-08-12T08:16:15;22.90;99.90
13744;DHT22;6943;52.368;9.966;2023-08-12T08:18:40;22.90;1.00
13744;DHT22;6943;52.368;9.966;2023-08-12T08:21:06;22.70;1.00
13744;DHT22;6943;52.368;9.966;2023-08-12T08:23:32;22.50;1.00
13744;DHT22;6943;52.368;9.966;2023-08-12T08:25:57;22.40;1.00
13744;DHT22;6943;52.368;9.966;2023-08-12T08:28:22;22.30;99.90
13744;DHT22;6943;52.368;9.966;2023-08-12T08:30:48;22.40;1.00
13744;DHT22;6943;52.368;9.966;2023-08-12T08:33:14;22.40;1.00
13744;DHT22;6943;52.368;9.966;2023-08-12T08:35:40;22.50;1.00
13744;DHT22;6943;52.368;9.966;2023-08-12T08:38:06;22.70;1.00
13744;DHT22;6943;52.368;9.966;2023-08-12T08:40:31;22.60;99.90
13744;DHT22;6943;52.368;9.966;2023-08-12T08:43:01;22.60;99.00
13744;DHT22;6943;52.368;9.966;2023-08-12T08:45:29;22.40;99.90
13744;DHT22;6943;52.368;9.966;2023-08-12T08:47:57;22.30;1.00
13744;DHT22;6943;52.368;9.966;2023-08-12T08:50:24;22.40;1.00
13744;DHT22;6943;52.368;9.966;2023-08-12T08:52:51;22.50;1.00
13744;DHT22;6943;52.368;9.966;2023-08-12T08:55:18;22.50;1.00
13744;DHT22;6943;52.368;9.966;2023-08-12T08:57:43;22.60;99.90
13744;DHT22;6943;52.368;9.966;2023-08-12T09:00:10;22.50;1.00
13744;DHT22;6943;52.368;9.966;2023-08-12T09:02:36;22.40;1.00
13744;DHT22;6943;52.368;9.966;2023-08-12T09:05:03;22.50;1.00
13744;DHT22;6943;52.368;9.966;2023-08-12T09:07:31;22.30;1.00
13744;DHT22;6943;52.368;9.966;2023-08-12T09:09:58;22.20;1.00
13744;DHT22;6943;52.368;9.966;2023-08-12T09:12:25;22.30;1.00
13744;DHT22;6943;52.368;9.966;2023-08-12T09:14:51;22.40;1.00
13744;DHT22;6943;52.368;9.966;2023-08-12T09:17:17;22.40;1.00
13744;DHT22;6943;52.368;9.966;2023-08-12T09:19:42;22.20;1.00
13744;DHT22;6943;52.368;9.966;2023-08-12T09:22:08;22.00;74.80
13744;DHT22;6943;52.368;9.966;2023-08-12T09:24:34;22.00;99.90
13744;DHT22;6943;52.368;9.966;2023-08-12T09:27:00;21.80;99.90
13744;DHT22;6943;52.368;9.966;2023-08-12T09:29:34;22.10;99.90
13744;DHT22;6943;52.368;9.966;2023-08-12T09:32:13;22.50;99.90
13744;DHT22;6943;52.368;9.966;2023-08-12T09:34:55;22.80;1.00
13744;DHT22;6943;52.368;9.966;2023-08-12T09:37:23;23.60;19.00
13744;DHT22;6943;52.368;9.966;2023-08-12T09:39:50;24.90;99.90
13744;DHT22;6943;52.368;9.966;2023-08-12T09:42:16;25.60;1.00
13744;DHT22;6943;52.368;9.966;2023-08-12T09:44:42;26.20;99.90
13744;DHT22;6943;52.368;9.966;2023-08-12T09:47:09;26.50;79.20
13744;DHT22;6943;52.368;9.966;2023-08-12T09:49:35;26.60;1.00
13744;DHT22;6943;52.368;9.966;2023-08-12T09:52:02;26.50;1.00
13744;DHT22;6943;52.368;9.966;2023-08-12T09:54:31;26.70;1.00
13744;DHT22;6943;52.368;9.966;2023-08-12T09:56:59;26.90;1.00
13744;DHT22;6943;52.368;9.966;2023-08-12T09:59:29;26.90;1.00
13744;DHT22;6943;52.368;9.966;2023-08-12T10:01:56;27.00;1.00
13744;DHT22;6943;52.368;9.966;2023-08-12T10:04:23;26.70;1.00
13744;DHT22;6943;52.368;9.966;2023-08-12T10:06:52;25.90;1.00
13744;DHT22;6943;52.368;9.966;2023-08-12T10:09:17;25.70;81.20
13744;DHT22;6943;52.368;9.966;2023-08-12T10:11:44;25.90;99.90
13744;DHT22;6943;52.368;9.966;2023-08-12T10:14:10;26.30;1.00
13744;DHT22;6943;52.368;9.966;2023-08-12T10:16:36;26.50;1.00
13744;DHT22;6943;52.368;9.966;2023-08-12T10:19:04;26.60;1.00
13744;DHT22;6943;52.368;9.966;2023-08-12T10:21:30;26.80;1.00
13744;DHT22;6943;52.368;9.966;2023-08-12T10:23:58;26.80;1.00
13744;DHT22;6943;52.368;9.966;2023-08-12T10:26:27;26.80;1.00
13744;DHT22;6943;52.368;9.966;2023-08-12T10:28:54;26.70;1.00
13744;DHT22;6943;52.368;9.966;2023-08-12T10:31:20;26.20;1.00
13744;DHT22;6943;52.368;9.966;2023-08-12T10:33:46;26.00;27.10
13744;DHT22;6943;52.368;9.966;2023-08-12T10:36:15;25.90;99.90
13744;DHT22;6943;52.368;9.966;2023-08-12T10:38:43;25.90;99.90
13744;DHT22;6943;52.368;9.966;2023-08-12T10:41:23;26.00;1.00
13744;DHT22;6943;52.368;9.966;2023-08-12T10:43:59;26.20;1.00
13744;DHT22;6943;52.368;9.966;2023-08-12T10:46:31;26.30;1.00
13744;DHT22;6943;52.368;9.966;2023-08-12T10:49:01;26.30;1.00
13744;DHT22;6943;52.368;9.966;2023-08-12T10:51:40;26.40;1.00
13744;DHT22;6943;52.368;9.966;2023-08-12T10:54:35;26.40;1.00
13744;DHT22;6943;52.368;9.966;2023-08-12T10:57:08;26.40;99.90
13744;DHT22;6943;52.368;9.966;2023-08-12T11:04:43;26.30;99.90
13744;DHT22;6943;52.368;9.966;2023-08-12T11:07:18;27.10;1.00
13744;DHT22;6943;52.368;9.966;2023-08-12T11:09:45;27.90;1.00
13744;DHT22;6943;52.368;9.966;2023-08-12T11:12:11;28.60;1.00
13744;DHT22;6943;52.368;9.966;2023-08-12T11:14:58;29.00;1.00
13744;DHT22;6943;52.368;9.966;2023-08-12T11:17:38;28.60;99.90
13744;DHT22;6943;52.368;9.966;2023-08-12T11:20:13;27.80;1.00
13744;DHT22;6943;52.368;9.966;2023-08-12T11:22:41;27.90;1.00
13744;DHT22;6943;52.368;9.966;2023-08-12T11:25:09;27.90;1.00
13744;DHT22;6943;52.368;9.966;2023-08-12T11:27:46;28.00;1.00
13744;DHT22;6943;52.368;9.966;2023-08-12T11:30:14;28.80;1.00
13744;DHT22;6943;52.368;9.966;2023-08-12T11:32:42;28.80;1.00
13744;DHT22;6943;52.368;9.966;2023-08-12T11:35:09;29.30;99.90
13744;DHT22;6943;52.368;9.966;2023-08-12T11:37:37;29.60;99.90
13744;DHT22;6943;52.368;9.966;2023-08-12T11:40:05;29.60;99.90
13744;DHT22;6943;52.368;9.966;2023-08-12T11:42:32;29.60;99.90
13744;DHT22;6943;52.368;9.966;2023-08-12T11:44:57;29.60;99.90
13744;DHT22;6943;52.368;9.966;2023-08-12T11:47:23;29.60;99.90
13744;DHT22;6943;52.368;9.966;2023-08-12T11:49:49;29.20;99.90
13744;DHT22;6943;52.368;9.966;2023-08-12T11:52:14;29.20;99.90
13744;DHT22;6943;52.368;9.966;2023-08-12T11:54:40;28.60;99.90
13744;DHT22;6943;52.368;9.966;2023-08-12T11:57:06;28.10;1.00
13744;DHT22;6943;52.368;9.966;2023-08-12T11:59:31;28.00;1.00
13744;DHT22;6943;52.368;9.966;2023-08-12T12:01:57;27.70;1.00
13744;DHT22;6943;52.368;9.966;2023-08-12T12:04:23;27.70;1.00
13744;DHT22;6943;52.368;9.966;2023-08-12T12:06:49;27.60;1.00
13744;DHT22;6943;52.368;9.966;2023-08-12T12:09:15;27.30;1.00
13744;DHT22;6943;52.368;9.966;2023-08-12T12:11:42;27.20;1.00
13744;DHT22;6943;52.368;9.966;2023-08-12T12:14:08;27.10;1.00
13744;DHT22;6943;52.368;9.966;2023-08-12T12:16:45;26.90;1.00
13744;DHT22;6943;52.368;9.966;2023-08-12T12:19:19;27.20;1.00
13744;DHT22;6943;52.368;9.966;2023-08-12T12:21:46;27.80;1.00
13744;DHT22;6943;52.368;9.966;2023-08-12T12:24:12;28.20;1.00
13744;DHT22;6943;52.368;9.966;2023-08-12T12:26:38;28.60;1.00
13744;DHT22;6943;52.368;9.966;2023-08-12T12:29:04;28.70;1.00
13744;DHT22;6943;52.368;9.966;2023-08-12T12:31:33;28.50;1.00
13744;DHT22;6943;52.368;9.966;2023-08-12T12:34:00;28.40;1.00
13744;DHT22;6943;52.368;9.966;2023-08-12T12:36:26;28.50;1.00
13744;DHT22;6943;52.368;9.966;2023-08-12T12:38:51;28.50;1.00
13744;DHT22;6943;52.368;9.966;2023-08-12T12:41:17;28.60;1.00
13744;DHT22;6943;52.368;9.966;2023-08-12T12:43:42;28.60;1.00
13744;DHT22;6943;52.368;9.966;2023-08-12T12:46:08;28.30;1.00
13744;DHT22;6943;52.368;9.966;2023-08-12T12:48:34;28.00;1.00
13744;DHT22;6943;52.368;9.966;2023-08-12T12:50:59;27.90;1.00
13744;DHT22;6943;52.368;9.966;2023-08-12T12:53:25;28.00;1.00
13744;DHT22;6943;52.368;9.966;2023-08-12T12:55:50;28.00;1.00
13744;DHT22;6943;52.368;9.966;2023-08-12T12:58:16;28.00;1.00
13744;DHT22;6943;52.368;9.966;2023-08-12T13:00:41;27.90;1.00
13744;DHT22;6943;52.368;9.966;2023-08-12T13:03:07;27.70;1.00
13744;DHT22;6943;52.368;9.966;2023-08-12T13:05:32;27.60;1.00
13744;DHT22;6943;52.368;9.966;2023-08-12T13:07:58;27.40;1.00
13744;DHT22;6943;52.368;9.966;2023-08-12T13:10:23;27.60;1.00
13744;DHT22;6943;52.368;9.966;2023-08-12T13:12:49;27.50;1.00
13744;DHT22;6943;52.368;9.966;2023-08-12T13:15:15;27.60;1.00
13744;DHT22;6943;52.368;9.966;2023-08-12T13:17:40;27.70;1.00
13744;DHT22;6943;52.368;9.966;2023-08-12T13:20:06;27.80;1.00
13744;DHT22;6943;52.368;9.966;2023-08-12T13:22:32;27.80;1.00
13744;DHT22;6943;52.368;9.966;2023-08-12T13:24:58;27.70;1.00
13744;DHT22;6943;52.368;9.966;2023-08-12T13:27:23;27.70;21.60
13744;DHT22;6943;52.368;9.966;2023-08-12T13:29:49;27.90;1.00
13744;DHT22;6943;52.368;9.966;2023-08-12T13:32:14;28.20;1.00
13744;DHT22;6943;52.368;9.966;2023-08-12T13:34:40;28.40;1.00
13744;DHT22;6943;52.368;9.966;2023-08-12T13:37:05;28.50;1.00
13744;DHT22;6943;52.368;9.966;2023-08-12T13:39:31;28.40;1.00
13744;DHT22;6943;52.368;9.966;2023-08-12T13:41:56;28.30;1.00
13744;DHT22;6943;52.368;9.966;2023-08-12T13:44:22;28.30;1.00
13744;DHT22;6943;52.368;9.966;2023-08-12T13:46:48;28.30;1.00
13744;DHT22;6943;52.368;9.966;2023-08-12T13:49:13;28.50;1.00
13744;DHT22;6943;52.368;9.966;2023-08-12T13:51:39;28.70;1.00
13744;DHT22;6943;52.368;9.966;2023-08-12T13:54:04;28.60;1.00
13744;DHT22;6943;52.368;9.966;2023-08-12T13:56:30;28.50;1.00
13744;DHT22;6943;52.368;9.966;2023-08-12T13:58:55;28.60;1.00
13744;DHT22;6943;52.368;9.966;2023-08-12T14:01:21;28.50;1.00
13744;DHT22;6943;52.368;9.966;2023-08-12T14:03:47;28.50;1.00
13744;DHT22;6943;52.368;9.966;2023-08-12T14:06:12;28.40;1.00
13744;DHT22;6943;52.368;9.966;2023-08-12T14:08:38;28.40;1.00
13744;DHT22;6943;52.368;9.966;2023-08-12T14:11:03;28.30;1.00
13744;DHT22;6943;52.368;9.966;2023-08-12T14:13:29;28.40;1.00
13744;DHT22;6943;52.368;9.966;2023-08-12T14:15:54;28.50;1.00
13744;DHT22;6943;52.368;9.966;2023-08-12T14:18:20;28.50;1.00
13744;DHT22;6943;52.368;9.966;2023-08-12T14:20:45;28.50;1.00
13744;DHT22;6943;52.368;9.966;2023-08-12T14:23:11;28.50;1.00
13744;DHT22;6943;52.368;9.966;2023-08-12T14:25:38;28.60;1.00
13744;DHT22;6943;52.368;9.966;2023-08-12T14:28:04;28.60;1.00
13744;DHT22;6943;52.368;9.966;2023-08-12T14:30:29;28.80;1.00
13744;DHT22;6943;52.368;9.966;2023-08-12T14:32:55;28.80;1.00
13744;DHT22;6943;52.368;9.966;2023-08-12T14:35:21;28.90;1.00
13744;DHT22;6943;52.368;9.966;2023-08-12T14:37:46;29.00;1.00
13744;DHT22;6943;52.368;9.966;2023-08-12T14:40:12;28.60;1.00
13744;DHT22;6943;52.368;9.966;2023-08-12T14:42:37;28.60;1.00
13744;DHT22;6943;52.368;9.966;2023-08-12T14:45:03;28.60;1.00
13744;DHT22;6943;52.368;9.966;2023-08-12T14:47:29;28.60;99.90
13744;DHT22;6943;52.368;9.966;2023-08-12T14:49:55;28.30;99.90
13744;DHT22;6943;52.368;9.966;2023-08-12T14:52:22;28.30;99.90
13744;DHT22;6943;52.368;9.966;2023-08-12T14:54:47;28.30;99.90
13744;DHT22;6943;52.368;9.966;2023-08-12T14:57:13;28.20;99.90
13744;DHT22;6943;52.368;9.966;2023-08-12T14:59:39;28.20;99.90
13744;DHT22;6943;52.368;9.966;2023-08-12T15:02:04;28.40;99.90
13744;DHT22;6943;52.368;9.966;2023-08-12T15:04:30;28.30;1.00
13744;DHT22;6943;52.368;9.966;2023-08-12T15:06:56;28.10;1.00
13744;DHT22;6943;52.368;9.966;2023-08-12T15:09:21;28.00;1.00
13744;DHT22;6943;52.368;9.966;2023-08-12T15:11:47;27.90;1.00
13744;DHT22;6943;52.368;9.966;2023-08-12T15:14:12;27.90;1.00
13744;DHT22;6943;52.368;9.966;2023-08-12T15:16:38;28.10;1.00
13744;DHT22;6943;52.368;9.966;2023-08-12T15:19:03;28.20;1.00
13744;DHT22;6943;52.368;9.966;2023-08-12T15:21:29;28.00;1.00
13744;DHT22;6943;52.368;9.966;2023-08-12T15:23:55;27.60;1.00
13744;DHT22;6943;52.368;9.966;2023-08-12T15:26:20;27.00;1.00
13744;DHT22;6943;52.368;9.966;2023-08-12T15:28:48;26.70;1.00
13744;DHT22;6943;52.368;9.966;2023-08-12T15:31:14;26.40;1.00
13744;DHT22;6943;52.368;9.966;2023-08-12T15:33:40;26.20;99.90
13744;DHT22;6943;52.368;9.966;2023-08-12T15:36:06;26.00;99.90
13744;DHT22;6943;52.368;9.966;2023-08-12T15:38:31;25.70;1.00
13744;DHT22;6943;52.368;9.966;2023-08-12T15:40:57;25.40;1.00
13744;DHT22;6943;52.368;9.966;2023-08-12T15:43:22;25.40;1.00
13744;DHT22;6943;52.368;9.966;2023-08-12T15:45:48;25.20;99.90
13744;DHT22;6943;52.368;9.966;2023-08-12T15:48:13;24.90;1.00
13744;DHT22;6943;52.368;9.966;2023-08-12T15:50:39;24.50;1.00
13744;DHT22;6943;52.368;9.966;2023-08-12T15:53:04;24.00;99.90
13744;DHT22;6943;52.368;9.966;2023-08-12T15:55:30;23.60;1.00
13744;DHT22;6943;52.368;9.966;2023-08-12T15:57:55;23.30;99.90
13744;DHT22;6943;52.368;9.966;2023-08-12T16:00:21;23.00;99.90
13744;DHT22;6943;52.368;9.966;2023-08-12T16:02:46;22.80;1.00